Arcadia, Iowa
Current Conditions -  °F | °C
As of 5:35 AM on Friday 19 Dec 2014 (Local Time) from KCIN Reporting Station
Haze Haze  
Wind Chill: 24°   Ceiling: 600
Heat Index: 30°   Visibility: 4mi
Dew Point: 28°   Wind: 6mph
Humidity: 93%   Direction: 190°S
Pressure: 30.22"   Gusts: NA
Location:  42.09°N, 95.05°W
Report Text: KCIN 191135Z AUTO 19005KT 4SM BR OVC006 M01/M02 A3022 RMK AO2
Loading
Personal Weather Stations






























Interactive Weather Map New forecast layout! Learn more

10-Day Weather Forecast

Advertisements
Track Severe Weather on mobile